createdAt,value
2022-12-22T00:00:29.201Z,-1.30
2022-12-22T00:03:11.469Z,-1.30
2022-12-22T00:05:53.770Z,-1.30
2022-12-22T00:08:35.777Z,-1.40
2022-12-22T00:11:18.155Z,-1.30
2022-12-22T00:14:03.749Z,-1.30
2022-12-22T00:16:50.310Z,-1.20
2022-12-22T00:19:33.500Z,-1.20
2022-12-22T00:22:20.025Z,-1.30
2022-12-22T00:25:02.034Z,-1.30
2022-12-22T00:27:48.750Z,-1.20
2022-12-22T00:30:34.398Z,-1.20
2022-12-22T00:33:17.551Z,-1.10
2022-12-22T00:35:59.811Z,-1.30
2022-12-22T00:38:41.675Z,-1.30
2022-12-22T00:41:24.291Z,-1.40
2022-12-22T00:44:06.167Z,-1.40
2022-12-22T00:46:50.650Z,-1.40
2022-12-22T00:49:33.447Z,-1.40
2022-12-22T00:52:15.327Z,-1.60
2022-12-22T00:54:57.149Z,-1.60
2022-12-22T00:57:43.214Z,-1.80
2022-12-22T01:00:33.794Z,-1.80
2022-12-22T01:03:17.202Z,-1.60
2022-12-22T01:05:59.101Z,-1.60
2022-12-22T01:08:40.751Z,-1.50
2022-12-22T01:11:22.336Z,-1.40
2022-12-22T01:14:04.058Z,-1.20
2022-12-22T01:16:45.885Z,-1.00
2022-12-22T01:19:29.345Z,-0.80
2022-12-22T01:22:11.383Z,-0.90
2022-12-22T01:24:53.391Z,-1.20
2022-12-22T01:27:35.321Z,-1.30
2022-12-22T01:30:17.313Z,-1.40
2022-12-22T01:32:59.366Z,-1.50
2022-12-22T01:35:45.229Z,-1.50
2022-12-22T01:38:27.292Z,-1.40
2022-12-22T01:41:09.668Z,-1.60
2022-12-22T01:43:53.286Z,-1.60
2022-12-22T01:46:40.965Z,-1.70
2022-12-22T01:49:22.806Z,-1.70
2022-12-22T01:52:06.570Z,-1.80
2022-12-22T01:54:48.334Z,-2.00
2022-12-22T01:57:30.167Z,-2.00
2022-12-22T02:00:12.290Z,-1.90
2022-12-22T02:02:54.130Z,-1.90
2022-12-22T02:05:38.043Z,-1.90
2022-12-22T02:08:35.571Z,-2.00
2022-12-22T02:11:32.342Z,-1.90
2022-12-22T02:14:29.599Z,-2.10
2022-12-22T02:17:18.619Z,-2.00
2022-12-22T02:20:26.940Z,-1.90
2022-12-22T02:23:17.189Z,-1.90
2022-12-22T02:26:06.244Z,-2.00
2022-12-22T02:28:51.939Z,-1.90
2022-12-22T02:31:34.632Z,-1.70
2022-12-22T02:34:16.283Z,-1.50
2022-12-22T02:37:05.723Z,-1.40
2022-12-22T02:39:56.681Z,-1.40
2022-12-22T02:42:50.507Z,-1.40
2022-12-22T02:45:45.149Z,-1.40
2022-12-22T02:48:34.714Z,-1.40
2022-12-22T02:51:24.813Z,-1.20
2022-12-22T02:54:07.294Z,-1.30
2022-12-22T02:56:49.393Z,-1.30
2022-12-22T02:59:31.187Z,-1.30
2022-12-22T03:02:15.021Z,-1.20
2022-12-22T03:04:57.151Z,-1.30
2022-12-22T03:07:39.222Z,-1.40
2022-12-22T03:10:21.064Z,-1.50
2022-12-22T03:13:02.810Z,-1.70
2022-12-22T03:15:44.616Z,-1.70
2022-12-22T03:18:30.625Z,-1.70
2022-12-22T03:21:13.060Z,-1.60
2022-12-22T03:23:54.900Z,-1.60
2022-12-22T03:26:19.276Z,-1.70
2022-12-22T03:28:43.586Z,-1.80
2022-12-22T03:31:08.452Z,-1.80
2022-12-22T03:33:34.926Z,-1.80
2022-12-22T03:35:59.801Z,-1.70
2022-12-22T03:38:24.428Z,-1.70
2022-12-22T03:40:49.366Z,-1.80
2022-12-22T03:43:32.453Z,-1.60
2022-12-22T03:46:14.603Z,-1.60
2022-12-22T03:48:40.518Z,-1.60
2022-12-22T03:51:04.947Z,-1.50
2022-12-22T03:53:29.521Z,-1.50
2022-12-22T03:55:53.867Z,-1.50
2022-12-22T03:58:18.260Z,-1.50
2022-12-22T04:00:42.682Z,-1.60
2022-12-22T04:03:07.130Z,-1.50
2022-12-22T04:05:33.018Z,-1.60
2022-12-22T04:07:57.521Z,-1.60
2022-12-22T04:10:39.367Z,-1.50
2022-12-22T04:13:04.069Z,-1.40
2022-12-22T04:15:30.630Z,-1.30
2022-12-22T04:17:55.553Z,-1.40
2022-12-22T04:20:21.404Z,-1.60
2022-12-22T04:22:47.987Z,-1.80
2022-12-22T04:25:12.630Z,-1.80
2022-12-22T04:27:37.324Z,-1.70
2022-12-22T04:30:01.739Z,-1.70
2022-12-22T04:32:27.274Z,-1.80
2022-12-22T04:34:51.638Z,-1.70
2022-12-22T04:37:17.815Z,-1.70
2022-12-22T04:39:43.773Z,-1.60
2022-12-22T04:42:08.535Z,-1.60
2022-12-22T04:44:32.843Z,-1.60
2022-12-22T04:46:57.431Z,-1.60
2022-12-22T04:49:21.780Z,-1.60
2022-12-22T04:51:46.192Z,-1.40
2022-12-22T04:54:10.559Z,-1.40
2022-12-22T04:56:36.349Z,-1.60
2022-12-22T04:59:00.720Z,-1.60
2022-12-22T05:01:29.830Z,-1.70
2022-12-22T05:03:57.617Z,-1.70
2022-12-22T05:06:22.096Z,-1.90
2022-12-22T05:08:46.502Z,-1.90
2022-12-22T05:11:11.372Z,-1.90
2022-12-22T05:13:37.118Z,-1.80
2022-12-22T05:16:06.301Z,-1.80
2022-12-22T05:18:30.984Z,-1.70
2022-12-22T05:20:55.360Z,-1.70
2022-12-22T05:23:19.793Z,-1.70
2022-12-22T05:25:44.229Z,-1.50
2022-12-22T05:28:09.016Z,-1.40
2022-12-22T05:30:35.020Z,-1.30
2022-12-22T05:32:59.532Z,-1.40
2022-12-22T05:35:24.028Z,-1.50
2022-12-22T05:37:48.539Z,-1.70
2022-12-22T05:40:14.503Z,-1.80
2022-12-22T05:42:39.650Z,-1.80
2022-12-22T05:45:13.662Z,-1.80
2022-12-22T05:47:39.902Z,-1.70
2022-12-22T05:50:04.596Z,-1.60
2022-12-22T05:52:29.290Z,-1.60
2022-12-22T05:54:53.812Z,-1.50
2022-12-22T05:57:18.351Z,-1.50
2022-12-22T05:59:42.962Z,-1.50
2022-12-22T06:02:07.964Z,-1.50
2022-12-22T06:04:33.954Z,-1.40
2022-12-22T06:06:58.611Z,-1.40
2022-12-22T06:09:23.019Z,-1.40
2022-12-22T06:11:47.534Z,-1.30
2022-12-22T06:14:12.027Z,-1.30
2022-12-22T06:16:36.456Z,-1.30
2022-12-22T06:19:01.227Z,-1.20
2022-12-22T06:21:26.915Z,-1.20
2022-12-22T06:23:51.405Z,-1.20
2022-12-22T06:26:16.160Z,-1.20
2022-12-22T06:28:40.641Z,-1.30
2022-12-22T06:31:05.225Z,-1.40
2022-12-22T06:33:29.875Z,-1.40
2022-12-22T06:35:58.901Z,-1.40
2022-12-22T06:38:25.482Z,-1.30
2022-12-22T06:40:50.210Z,-1.20
2022-12-22T06:43:13.829Z,-1.20
2022-12-22T06:45:40.108Z,-1.20
2022-12-22T06:48:05.111Z,-1.20
2022-12-22T06:50:29.681Z,-1.20
2022-12-22T06:52:54.059Z,-1.20
2022-12-22T06:55:20.039Z,-1.10
2022-12-22T06:57:44.500Z,-0.90
2022-12-22T07:00:10.061Z,-0.90
2022-12-22T07:02:34.756Z,-0.80
2022-12-22T07:04:59.338Z,-0.70
2022-12-22T07:07:23.703Z,-0.50
2022-12-22T07:09:47.969Z,-0.40
2022-12-22T07:12:14.744Z,-0.50
2022-12-22T07:14:43.510Z,-0.60
2022-12-22T07:17:09.158Z,-0.60
2022-12-22T07:19:33.555Z,-0.60
2022-12-22T07:21:57.954Z,-0.60
2022-12-22T07:24:24.988Z,-0.70
2022-12-22T07:26:49.294Z,-0.70
2022-12-22T07:29:15.109Z,-0.80
2022-12-22T07:31:39.409Z,-0.80
2022-12-22T07:34:03.936Z,-0.70
2022-12-22T07:36:28.268Z,-0.70
2022-12-22T07:38:53.402Z,-0.60
2022-12-22T07:41:37.269Z,-0.70
2022-12-22T07:44:05.318Z,-0.70
2022-12-22T07:46:33.144Z,-0.80
2022-12-22T07:49:15.060Z,-0.80
2022-12-22T07:51:41.813Z,-0.80
2022-12-22T07:54:07.970Z,-0.80
2022-12-22T07:56:32.723Z,-0.90
2022-12-22T07:58:57.197Z,-0.90
2022-12-22T08:01:21.710Z,-0.80
2022-12-22T08:03:47.497Z,-0.70
2022-12-22T08:06:12.150Z,-0.80
2022-12-22T08:08:36.487Z,-0.70
2022-12-22T08:11:03.354Z,-0.70
2022-12-22T08:13:27.858Z,-0.70
2022-12-22T08:15:52.174Z,-0.70
2022-12-22T08:18:16.595Z,-0.80
2022-12-22T08:20:42.264Z,-0.70
2022-12-22T08:23:06.807Z,-0.60
2022-12-22T08:25:33.241Z,-0.50
2022-12-22T08:27:58.507Z,-0.40
2022-12-22T08:30:22.935Z,-0.50
2022-12-22T08:32:50.050Z,-0.50
2022-12-22T08:35:14.376Z,-0.60
2022-12-22T08:37:44.758Z,-0.70
2022-12-22T08:40:12.769Z,-0.80
2022-12-22T08:42:37.258Z,-0.70
2022-12-22T08:45:01.820Z,-0.50
2022-12-22T08:47:26.794Z,-0.60
2022-12-22T08:49:51.740Z,-0.50
2022-12-22T08:52:18.755Z,-0.50
2022-12-22T08:54:44.961Z,-0.40
2022-12-22T08:57:09.348Z,-0.30
2022-12-22T08:59:33.696Z,-0.30
2022-12-22T09:01:58.164Z,-0.30
2022-12-22T09:04:25.516Z,-0.20
2022-12-22T09:06:52.294Z,-0.30
2022-12-22T09:09:17.864Z,-0.30
2022-12-22T09:11:43.741Z,-0.20
2022-12-22T09:14:09.206Z,-0.20
2022-12-22T09:16:35.109Z,-0.40
2022-12-22T09:19:00.119Z,-0.40
2022-12-22T09:21:25.486Z,-0.30
2022-12-22T09:23:50.266Z,-0.30
2022-12-22T09:26:17.646Z,-0.30
2022-12-22T09:28:48.238Z,-0.30
2022-12-22T09:31:15.583Z,-0.10
2022-12-22T09:33:40.221Z,-0.10
2022-12-22T09:36:08.016Z,-0.20
2022-12-22T09:38:33.637Z,0.00
2022-12-22T09:40:58.469Z,0.00
2022-12-22T09:43:26.626Z,0.00
2022-12-22T09:45:52.697Z,0.10
2022-12-22T09:48:17.387Z,-0.10
2022-12-22T09:50:43.345Z,-0.10
2022-12-22T09:53:18.182Z,-0.20
2022-12-22T09:55:59.115Z,-0.10
2022-12-22T09:58:32.105Z,0.00
2022-12-22T10:01:32.394Z,0.10
2022-12-22T10:04:30.651Z,0.10
2022-12-22T10:07:26.319Z,0.00
2022-12-22T10:09:58.863Z,0.10
2022-12-22T10:12:35.630Z,0.30
2022-12-22T10:15:04.779Z,0.30
2022-12-22T10:17:39.438Z,0.30
2022-12-22T10:20:22.424Z,0.40
2022-12-22T10:22:52.915Z,0.40
2022-12-22T10:28:23.639Z,0.50
2022-12-22T10:30:52.086Z,0.60
2022-12-22T10:33:24.830Z,0.70
2022-12-22T10:35:56.583Z,0.80
2022-12-22T10:38:28.549Z,0.80
2022-12-22T10:41:02.049Z,0.90
2022-12-22T10:43:33.214Z,1.00
2022-12-22T10:46:02.607Z,1.10
2022-12-22T10:48:35.773Z,1.00
2022-12-22T10:51:02.652Z,1.10
2022-12-22T10:53:44.688Z,1.10
2022-12-22T10:56:19.080Z,1.10
2022-12-22T10:58:50.481Z,1.10
2022-12-22T11:01:15.519Z,1.00
2022-12-22T11:03:41.365Z,1.20
2022-12-22T11:06:13.799Z,1.20
2022-12-22T11:08:38.397Z,1.20
2022-12-22T11:11:08.346Z,1.20
2022-12-22T11:13:45.844Z,1.20
2022-12-22T11:16:18.288Z,1.20
2022-12-22T11:19:03.638Z,1.20
2022-12-22T11:21:36.664Z,1.20
2022-12-22T11:24:11.561Z,1.40
2022-12-22T11:26:44.964Z,1.50
2022-12-22T11:29:34.589Z,1.30
2022-12-22T11:32:18.285Z,1.30
2022-12-22T11:34:57.081Z,1.40
2022-12-22T11:37:32.972Z,1.50
2022-12-22T11:40:08.067Z,1.50
2022-12-22T11:43:01.952Z,1.50
2022-12-22T11:45:48.678Z,1.60
2022-12-22T11:48:41.574Z,1.80
2022-12-22T11:51:14.739Z,1.60
2022-12-22T11:54:10.908Z,1.80
2022-12-22T11:56:40.234Z,1.80
2022-12-22T11:59:30.643Z,1.80
2022-12-22T12:02:09.659Z,1.80
2022-12-22T12:05:01.973Z,1.80
2022-12-22T12:07:34.340Z,1.80
2022-12-22T12:10:08.140Z,1.80
2022-12-22T12:12:45.565Z,1.60
2022-12-22T12:15:23.840Z,1.60
2022-12-22T12:18:02.694Z,1.50
2022-12-22T12:20:49.765Z,1.60
2022-12-22T12:23:44.681Z,1.60
2022-12-22T12:26:16.980Z,1.60
2022-12-22T12:28:52.960Z,1.70
2022-12-22T12:31:26.087Z,1.70
2022-12-22T12:33:55.505Z,1.80
2022-12-22T12:36:26.136Z,1.80
2022-12-22T12:39:08.079Z,1.70
2022-12-22T12:41:39.564Z,1.60
2022-12-22T12:44:05.824Z,1.60
2022-12-22T12:47:02.277Z,1.50
2022-12-22T12:49:55.988Z,1.40
2022-12-22T12:52:40.407Z,1.40
2022-12-22T12:55:31.904Z,1.50
2022-12-22T12:57:58.255Z,1.60
2022-12-22T13:00:53.931Z,1.70
2022-12-22T13:06:51.070Z,1.40
2022-12-22T13:09:49.365Z,1.40
2022-12-22T13:12:40.182Z,1.50
2022-12-22T13:15:05.284Z,1.50
2022-12-22T13:17:49.241Z,1.60
2022-12-22T13:20:18.086Z,1.60
2022-12-22T13:22:44.552Z,1.70
2022-12-22T13:25:16.617Z,1.70
2022-12-22T13:27:42.950Z,1.80
2022-12-22T13:30:13.498Z,1.80
2022-12-22T13:32:41.986Z,1.80
2022-12-22T13:35:33.218Z,1.80
2022-12-22T13:37:59.425Z,1.80
2022-12-22T13:40:26.857Z,1.90
2022-12-22T13:42:55.413Z,1.80
2022-12-22T13:45:29.176Z,1.80
2022-12-22T13:47:54.312Z,1.80
2022-12-22T13:50:21.733Z,1.70
2022-12-22T13:52:46.553Z,1.70
2022-12-22T13:55:14.722Z,1.80
2022-12-22T13:57:41.239Z,1.70
2022-12-22T14:00:18.335Z,1.70
2022-12-22T14:02:43.011Z,1.70
2022-12-22T14:05:09.846Z,1.70
2022-12-22T14:07:34.840Z,1.70
2022-12-22T14:10:00.015Z,1.60
2022-12-22T14:12:26.482Z,1.70
2022-12-22T14:14:52.998Z,1.70
2022-12-22T14:17:24.026Z,1.80
2022-12-22T14:19:51.728Z,1.80
2022-12-22T14:22:19.778Z,1.80
2022-12-22T14:24:48.529Z,1.80
2022-12-22T14:27:22.990Z,1.80
2022-12-22T14:29:47.667Z,1.80
2022-12-22T14:32:29.475Z,1.80
2022-12-22T14:34:56.139Z,1.70
2022-12-22T14:37:32.354Z,1.70
2022-12-22T14:39:57.842Z,1.60
2022-12-22T14:42:22.223Z,1.50
2022-12-22T14:44:47.584Z,1.50
2022-12-22T14:47:18.484Z,1.50
2022-12-22T14:49:51.728Z,1.50
2022-12-22T14:52:22.460Z,1.60
2022-12-22T14:54:48.819Z,1.60
2022-12-22T14:57:17.325Z,1.70
2022-12-22T14:59:41.887Z,1.70
2022-12-22T15:02:22.571Z,1.70
2022-12-22T15:04:47.211Z,1.70
2022-12-22T15:07:54.427Z,1.70
2022-12-22T15:10:20.968Z,1.70
2022-12-22T15:12:45.962Z,1.80
2022-12-22T15:15:17.813Z,1.80
2022-12-22T15:17:42.484Z,1.70
2022-12-22T15:20:08.473Z,1.70
2022-12-22T15:22:35.027Z,1.60
2022-12-22T15:24:59.534Z,1.60
2022-12-22T15:27:24.097Z,1.40
2022-12-22T15:29:48.726Z,1.30
2022-12-22T15:32:14.269Z,1.30
2022-12-22T15:34:38.971Z,1.20
2022-12-22T15:37:03.846Z,1.10
2022-12-22T15:39:34.419Z,0.90
2022-12-22T15:41:59.507Z,0.80
2022-12-22T15:44:23.969Z,0.70
2022-12-22T15:46:55.959Z,0.60
2022-12-22T15:49:23.656Z,0.60
2022-12-22T15:51:51.650Z,0.50
2022-12-22T15:54:17.355Z,0.50
2022-12-22T15:56:44.561Z,0.50
2022-12-22T15:59:15.745Z,0.60
2022-12-22T16:01:40.592Z,0.60
2022-12-22T16:04:05.152Z,0.60
2022-12-22T16:06:30.694Z,0.70
2022-12-22T16:08:55.612Z,0.80
2022-12-22T16:11:20.446Z,0.90
2022-12-22T16:13:47.616Z,1.00
2022-12-22T16:16:12.994Z,0.90
2022-12-22T16:18:39.882Z,0.90
2022-12-22T16:21:09.540Z,0.90
2022-12-22T16:23:34.145Z,1.00
2022-12-22T16:26:02.158Z,1.00
2022-12-22T16:28:27.111Z,0.90
2022-12-22T16:30:54.105Z,1.00
2022-12-22T16:33:19.102Z,1.10
2022-12-22T16:35:43.536Z,1.10
2022-12-22T16:38:13.036Z,1.10
2022-12-22T16:40:44.751Z,1.10
2022-12-22T16:46:00.814Z,1.20
2022-12-22T16:48:33.808Z,1.10
2022-12-22T16:50:58.735Z,1.10
2022-12-22T16:53:23.212Z,0.90
2022-12-22T16:55:48.051Z,0.90
2022-12-22T16:58:14.353Z,0.80
2022-12-22T17:00:39.860Z,0.90
2022-12-22T17:03:13.373Z,0.90
2022-12-22T17:05:44.843Z,0.90
2022-12-22T17:08:17.246Z,1.00
2022-12-22T17:10:41.848Z,1.00
2022-12-22T17:13:06.360Z,1.10
2022-12-22T17:15:31.022Z,1.00
2022-12-22T17:17:55.679Z,1.00
2022-12-22T17:20:24.858Z,1.00
2022-12-22T17:22:53.030Z,1.00
2022-12-22T17:25:20.974Z,1.00
2022-12-22T17:27:45.637Z,1.10
2022-12-22T17:30:18.331Z,1.20
2022-12-22T17:32:43.135Z,1.10
2022-12-22T17:35:07.724Z,1.00
2022-12-22T17:37:33.594Z,1.00
2022-12-22T17:40:02.950Z,1.00
2022-12-22T17:42:27.877Z,0.80
2022-12-22T17:44:53.576Z,0.90
2022-12-22T17:47:25.184Z,0.90
2022-12-22T17:49:56.206Z,1.00
2022-12-22T17:52:23.237Z,0.90
2022-12-22T17:54:51.488Z,0.90
2022-12-22T17:57:20.168Z,0.70
2022-12-22T17:59:44.635Z,0.60
2022-12-22T18:02:16.366Z,0.70
2022-12-22T18:04:41.191Z,0.50
2022-12-22T18:07:05.613Z,0.40
2022-12-22T18:09:30.239Z,0.40
2022-12-22T18:11:56.211Z,0.50
2022-12-22T18:14:24.838Z,0.60
2022-12-22T18:16:49.628Z,0.70
2022-12-22T18:19:14.180Z,0.80
2022-12-22T18:21:38.768Z,0.90
2022-12-22T18:24:04.559Z,0.90
2022-12-22T18:26:31.148Z,0.80
2022-12-22T18:28:57.408Z,0.60
2022-12-22T18:31:22.698Z,0.60
2022-12-22T18:33:47.491Z,0.50
2022-12-22T18:36:25.006Z,0.40
2022-12-22T18:38:50.761Z,0.50
2022-12-22T18:41:19.885Z,0.50
2022-12-22T18:43:44.478Z,0.50
2022-12-22T18:46:12.443Z,0.50
2022-12-22T18:48:37.025Z,0.40
2022-12-22T18:51:01.492Z,0.30
2022-12-22T18:53:30.226Z,0.30
2022-12-22T18:55:55.228Z,0.30
2022-12-22T18:58:20.432Z,0.40
2022-12-22T19:00:45.517Z,0.30
2022-12-22T19:03:18.729Z,0.40
2022-12-22T19:05:44.890Z,0.50
2022-12-22T19:08:14.779Z,0.50
2022-12-22T19:10:41.169Z,0.60
2022-12-22T19:13:09.301Z,0.70
2022-12-22T19:15:36.602Z,0.80
2022-12-22T19:18:01.033Z,0.70
2022-12-22T19:20:27.915Z,0.70
2022-12-22T19:22:53.180Z,0.80
2022-12-22T19:25:19.504Z,0.90
2022-12-22T19:27:44.241Z,0.80
2022-12-22T19:30:17.233Z,0.80
2022-12-22T19:32:46.257Z,0.80
2022-12-22T19:35:15.132Z,0.80
2022-12-22T19:37:41.255Z,0.70
2022-12-22T19:40:06.452Z,0.70
2022-12-22T19:42:30.942Z,0.80
2022-12-22T19:44:55.698Z,0.80
2022-12-22T19:47:24.403Z,0.70
2022-12-22T19:49:49.493Z,0.70
2022-12-22T19:52:13.915Z,0.70
2022-12-22T19:54:40.120Z,0.70
2022-12-22T19:57:07.536Z,0.70
2022-12-22T19:59:39.072Z,0.80
2022-12-22T20:02:08.871Z,0.80
2022-12-22T20:04:33.574Z,0.90
2022-12-22T20:06:58.119Z,0.90
2022-12-22T20:09:22.674Z,0.90
2022-12-22T20:11:48.730Z,0.90
2022-12-22T20:14:17.898Z,0.90
2022-12-22T20:16:42.400Z,0.80
2022-12-22T20:19:14.042Z,0.70
2022-12-22T20:21:38.810Z,0.70
2022-12-22T20:24:05.805Z,0.60
2022-12-22T20:26:30.652Z,0.70
2022-12-22T20:28:56.704Z,0.60
2022-12-22T20:31:24.561Z,0.50
2022-12-22T20:33:49.727Z,0.50
2022-12-22T20:36:21.494Z,0.50
2022-12-22T20:38:46.829Z,0.50
2022-12-22T20:41:11.902Z,0.50
2022-12-22T20:43:37.561Z,0.40
2022-12-22T20:46:07.930Z,0.50
2022-12-22T20:48:36.018Z,0.60
2022-12-22T20:51:01.144Z,0.50
2022-12-22T20:53:25.827Z,0.50
2022-12-22T20:55:50.556Z,0.60
2022-12-22T20:58:21.949Z,0.60
2022-12-22T21:00:46.900Z,0.60
2022-12-22T21:03:13.203Z,0.60
2022-12-22T21:05:38.087Z,0.70
2022-12-22T21:08:02.577Z,0.80
2022-12-22T21:10:27.856Z,0.70
2022-12-22T21:12:52.393Z,0.70
2022-12-22T21:15:22.148Z,0.70
2022-12-22T21:17:49.075Z,0.70
2022-12-22T21:20:32.272Z,0.70
2022-12-22T21:22:56.831Z,0.80
2022-12-22T21:25:21.148Z,0.80
2022-12-22T21:27:48.446Z,0.70
2022-12-22T21:30:20.492Z,0.70
2022-12-22T21:32:45.299Z,0.80
2022-12-22T21:35:13.684Z,0.70
2022-12-22T21:37:39.644Z,0.70
2022-12-22T21:40:04.129Z,0.70
2022-12-22T21:42:28.588Z,0.60
2022-12-22T21:44:52.906Z,0.60
2022-12-22T21:47:20.771Z,0.70
2022-12-22T21:49:45.172Z,0.80
2022-12-22T21:52:10.532Z,0.80
2022-12-22T21:54:36.257Z,0.80
2022-12-22T21:57:00.803Z,0.90
2022-12-22T21:59:25.183Z,0.90
2022-12-22T22:01:53.954Z,0.90
2022-12-22T22:04:18.436Z,0.80
2022-12-22T22:06:42.964Z,0.80
2022-12-22T22:09:07.761Z,0.80
2022-12-22T22:11:33.675Z,0.90
2022-12-22T22:13:58.134Z,1.00
2022-12-22T22:16:22.589Z,1.00
2022-12-22T22:18:48.554Z,1.00
2022-12-22T22:21:15.069Z,0.90
2022-12-22T22:23:39.712Z,1.00
2022-12-22T22:26:04.919Z,0.90
2022-12-22T22:28:30.715Z,0.90
2022-12-22T22:30:55.128Z,0.90
2022-12-22T22:33:19.589Z,0.80
2022-12-22T22:35:44.000Z,0.80
2022-12-22T22:38:08.604Z,0.80
2022-12-22T22:40:33.110Z,0.80
2022-12-22T22:42:57.972Z,0.80
2022-12-22T22:45:24.452Z,0.80
2022-12-22T22:47:48.876Z,0.90
2022-12-22T22:50:13.633Z,1.00
2022-12-22T22:52:38.262Z,1.00
2022-12-22T22:55:02.648Z,0.90
2022-12-22T22:57:27.236Z,0.90
2022-12-22T22:59:51.795Z,0.90
2022-12-22T23:02:17.952Z,0.80
2022-12-22T23:04:42.521Z,0.70
2022-12-22T23:07:06.954Z,0.60
2022-12-22T23:09:31.380Z,0.70
2022-12-22T23:11:56.023Z,0.70
2022-12-22T23:14:20.599Z,0.80
2022-12-22T23:16:45.001Z,0.90
2022-12-22T23:19:11.427Z,1.00
2022-12-22T23:21:35.976Z,1.10
2022-12-22T23:24:00.317Z,1.00
2022-12-22T23:26:25.671Z,1.00
2022-12-22T23:28:50.087Z,1.00
2022-12-22T23:31:14.620Z,1.00
2022-12-22T23:33:38.970Z,1.00
2022-12-22T23:36:05.561Z,1.00
2022-12-22T23:38:29.892Z,1.10
2022-12-22T23:40:55.024Z,1.10
2022-12-22T23:43:19.544Z,1.10
2022-12-22T23:45:44.270Z,1.00
2022-12-22T23:48:09.685Z,0.90
2022-12-22T23:50:34.258Z,1.00
2022-12-22T23:53:00.056Z,1.10
2022-12-22T23:55:24.517Z,1.10
2022-12-22T23:57:51.125Z,1.10
